Time;durP1;ratioP1;P1;durP2;ratioP2;P2;SDS_P1;SDS_P2;PMS_P1;PMS_P2;Temp;Humidity;BMP_temperature;BMP_pressure;BME280_temperature;BME280_humidity;BME280_pressure;Samples;Min_cycle;Max_cycle;Signal;HPM_P1;HPM_P2
2022/08/02 00:01:34;;;;;;;1.27;1.13;;;;;;;;;;1998927;29;20141;-85
2022/08/02 00:02:35;;;;;;;1.30;1.02;;;;;;;;;;1998006;29;20082;-84
2022/08/02 00:03:53;;;;;;;1.75;1.17;;;;;;;;;;1997984;29;20133;-84
2022/08/02 00:05:16;;;;;;;1.30;1.15;;;;;;;;;;2005894;29;20048;-84
2022/08/02 00:06:45;;;;;;;1.83;1.30;;;;;;;;;;1998068;29;20049;-85
2022/08/02 00:07:48;;;;;;;1.60;1.38;;;;;;;;;;2001859;29;20124;-85
2022/08/02 00:08:52;;;;;;;0.90;0.88;;;;;;;;;;2011661;29;20037;-85
2022/08/02 00:09:55;;;;;;;2.35;1.30;;;;;;;;;;2013076;29;20038;-83
2022/08/02 00:10:56;;;;;;;1.33;1.20;;;;;;;;;;2002583;29;20103;-85
2022/08/02 00:12:07;;;;;;;;;;;;;;;;;;;;;
2022/08/02 00:13:09;;;;;;;1.23;1.08;;;;;;;;;;2030065;29;20096;-83
2022/08/02 00:14:13;;;;;;;2.53;1.20;;;;;;;;;;2037619;29;20059;-83
2022/08/02 00:15:13;;;;;;;1.63;1.40;;;;;;;;;;2036644;29;20378;-83
2022/08/02 00:16:21;;;;;;;1.55;1.38;;;;;;;;;;2037106;29;20032;-84
2022/08/02 00:17:25;;;;;;;1.30;1.20;;;;;;;;;;2036794;29;20032;-83
2022/08/02 00:19:18;;;;;;;1.58;1.40;;;;;;;;;;2037157;29;20024;-84
2022/08/02 00:20:44;;;;;;;1.25;1.15;;;;;;;;;;2021481;29;20419;-84
2022/08/02 00:22:08;;;;;;;2.17;1.38;;;;;;;;;;2020775;29;20032;-84
2022/08/02 00:25:26;;;;;;;2.20;1.40;;;;;;;;;;2020551;29;20037;-84
2022/08/02 00:27:03;;;;;;;;;;;;;;;;;;;;;
2022/08/02 00:31:17;;;;;;;;;;;;;;;;;;;;;
2022/08/02 00:32:52;;;;;;;1.95;1.30;;;;;;;;;;2013681;29;20029;-84
2022/08/02 00:33:52;;;;;;;1.60;1.50;;;;;;;;;;2013247;29;20041;-85
2022/08/02 00:36:28;;;;;;;1.73;1.38;;;;;;;;;;1998069;29;20038;-85
2022/08/02 00:37:37;;;;;;;1.60;1.27;;;;;;;;;;2007046;29;20786;-85
2022/08/02 00:39:13;;;;;;;1.50;1.40;;;;;;;;;;1997518;29;20065;-84
2022/08/02 00:40:45;;;;;;;1.73;1.63;;;;;;;;;;1982570;30;20062;-86
2022/08/02 00:43:07;;;;;;;1.70;1.45;;;;;;;;;;1990490;29;20467;-84
2022/08/02 00:45:51;;;;;;;1.50;1.33;;;;;;;;;;1975186;30;20066;-85
2022/08/02 00:46:59;;;;;;;1.58;1.40;;;;;;;;;;1975072;30;20054;-84
2022/08/02 00:50:18;;;;;;;1.50;1.40;;;;;;;;;;1968557;30;20036;-85
2022/08/02 00:51:27;;;;;;;1.50;1.40;;;;;;;;;;1964921;30;20155;-85
2022/08/02 00:53:26;;;;;;;1.70;1.40;;;;;;;;;;1970978;30;20028;-85
2022/08/02 00:57:12;;;;;;;2.15;1.58;;;;;;;;;;1974795;30;20039;-84
2022/08/02 01:01:03;;;;;;;;;;;;;;;;;;;;;
2022/08/02 01:02:11;;;;;;;2.53;1.67;;;;;;;;;;1960503;30;20076;-85
2022/08/02 01:09:34;;;;;;;2.65;1.30;;;;;;;;;;1926250;30;20053;-84
2022/08/02 01:12:37;;;;;;;1.38;1.27;;;;;;;;;;1946455;30;20049;-85
2022/08/02 01:13:37;;;;;;;1.65;1.48;;;;;;;;;;1946074;30;20037;-85
2022/08/02 01:15:06;;;;;;;1.80;1.50;;;;;;;;;;1945981;30;20045;-84
2022/08/02 01:16:50;;;;;;;2.13;1.90;;;;;;;;;;1946774;30;20050;-84
2022/08/02 01:18:31;;;;;;;1.60;1.50;;;;;;;;;;1961093;30;20048;-85
2022/08/02 01:20:36;;;;;;;2.55;1.60;;;;;;;;;;1967500;30;20055;-85
2022/08/02 01:22:28;;;;;;;2.15;1.90;;;;;;;;;;1953749;30;20097;-85
2022/08/02 01:27:57;;;;;;;1.67;1.58;;;;;;;;;;1990154;29;20586;-85
2022/08/02 01:29:35;;;;;;;2.00;1.80;;;;;;;;;;1997931;29;20030;-84
2022/08/02 01:30:55;;;;;;;1.90;1.73;;;;;;;;;;2002413;29;20182;-84
2022/08/02 01:34:23;;;;;;;1.63;1.50;;;;;;;;;;2005694;29;20034;-85
2022/08/02 01:38:51;;;;;;;2.10;1.58;;;;;;;;;;2032040;29;20115;-85
2022/08/02 01:40:21;;;;;;;1.98;1.77;;;;;;;;;;2044283;29;20027;-85
2022/08/02 01:41:46;;;;;;;;;;;;;;;;;;;;;
2022/08/02 01:42:52;;;;;;;1.70;1.60;;;;;;;;;;2016566;29;20048;-83
2022/08/02 01:44:21;;;;;;;2.10;1.60;;;;;;;;;;2046556;29;20106;-85
2022/08/02 01:45:31;;;;;;;2.03;1.65;;;;;;;;;;2043161;29;20028;-85
2022/08/02 01:46:40;;;;;;;1.60;1.50;;;;;;;;;;2037244;29;20046;-85
2022/08/02 01:48:29;;;;;;;1.70;1.60;;;;;;;;;;2031277;29;20096;-84
2022/08/02 01:49:33;;;;;;;2.35;1.85;;;;;;;;;;2046366;28;20030;-84
2022/08/02 01:50:36;;;;;;;1.70;1.60;;;;;;;;;;2051542;28;20257;-84
2022/08/02 01:53:13;;;;;;;1.48;1.38;;;;;;;;;;2046703;29;20055;-84
2022/08/02 01:54:18;;;;;;;1.98;1.65;;;;;;;;;;2045900;29;20027;-84
2022/08/02 01:55:23;;;;;;;2.90;1.70;;;;;;;;;;2038321;29;20056;-84
2022/08/02 01:56:43;;;;;;;2.28;1.33;;;;;;;;;;2032130;29;20033;-84
2022/08/02 01:57:48;;;;;;;1.67;1.58;;;;;;;;;;2041517;29;20075;-85
2022/08/02 01:59:10;;;;;;;2.38;1.88;;;;;;;;;;2046305;29;20036;-84
2022/08/02 02:00:38;;;;;;;2.08;1.65;;;;;;;;;;2041911;29;20541;-85
2022/08/02 02:02:41;;;;;;;3.63;1.95;;;;;;;;;;2027136;29;20044;-83
2022/08/02 02:04:06;;;;;;;2.00;1.58;;;;;;;;;;2038873;29;20035;-85
2022/08/02 02:06:03;;;;;;;2.22;1.70;;;;;;;;;;2037486;29;20028;-85
2022/08/02 02:11:49;;;;;;;2.33;1.90;;;;;;;;;;2029762;29;20028;-83
2022/08/02 02:13:01;;;;;;;4.05;1.73;;;;;;;;;;2022069;29;20131;-84
2022/08/02 02:14:31;;;;;;;3.55;1.55;;;;;;;;;;2020490;29;20473;-86
2022/08/02 02:15:43;;;;;;;1.88;1.67;;;;;;;;;;2024677;29;20528;-84
2022/08/02 02:16:52;;;;;;;1.58;1.40;;;;;;;;;;2030742;29;20041;-84
2022/08/02 02:18:07;;;;;;;;;;;;;;;;;;;;;
2022/08/02 02:19:13;;;;;;;1.60;1.50;;;;;;;;;;2034339;29;20040;-84
2022/08/02 02:20:29;;;;;;;1.90;1.70;;;;;;;;;;2028784;29;20040;-84
2022/08/02 02:22:29;;;;;;;1.98;1.70;;;;;;;;;;2029232;29;20112;-85
2022/08/02 02:23:55;;;;;;;2.28;1.98;;;;;;;;;;1990920;29;20526;-85
2022/08/02 02:27:05;;;;;;;2.13;1.60;;;;;;;;;;2004984;29;20042;-85
2022/08/02 02:28:18;;;;;;;3.00;1.92;;;;;;;;;;2005121;29;20042;-85
2022/08/02 02:34:17;;;;;;;1.42;1.30;;;;;;;;;;1983625;29;20031;-85
2022/08/02 02:36:00;;;;;;;2.80;2.05;;;;;;;;;;1944105;30;20050;-84
2022/08/02 02:37:09;;;;;;;1.40;1.30;;;;;;;;;;1968699;30;20066;-85
2022/08/02 02:38:16;;;;;;;1.80;1.65;;;;;;;;;;1976637;30;20028;-85
2022/08/02 02:39:21;;;;;;;2.30;1.58;;;;;;;;;;1984476;29;20051;-85
2022/08/02 02:40:48;;;;;;;2.15;1.77;;;;;;;;;;1991259;29;20026;-88
2022/08/02 02:42:10;;;;;;;2.05;1.85;;;;;;;;;;1980626;30;20121;-86
2022/08/02 02:43:19;;;;;;;2.50;1.80;;;;;;;;;;2032417;29;20020;-85
2022/08/02 02:44:24;;;;;;;1.70;1.60;;;;;;;;;;2038459;29;20024;-85
2022/08/02 02:45:25;;;;;;;2.10;1.55;;;;;;;;;;2029650;29;20032;-85
2022/08/02 02:46:35;;;;;;;2.47;1.85;;;;;;;;;;2021858;29;20528;-85
2022/08/02 02:47:48;;;;;;;2.00;1.60;;;;;;;;;;2023706;29;20025;-85
2022/08/02 02:49:50;;;;;;;2.40;1.95;;;;;;;;;;2031903;29;20021;-85
2022/08/02 02:53:20;;;;;;;6.63;2.80;;;;;;;;;;1991390;29;20103;-84
2022/08/02 02:54:27;;;;;;;3.70;2.08;;;;;;;;;;1996930;29;20041;-83
2022/08/02 02:55:31;;;;;;;2.75;2.25;;;;;;;;;;2022628;29;20110;-84
2022/08/02 02:56:39;;;;;;;3.28;1.85;;;;;;;;;;2031104;29;20017;-84
2022/08/02 02:57:40;;;;;;;2.42;2.17;;;;;;;;;;2038338;29;20032;-84
2022/08/02 03:05:03;;;;;;;2.55;1.90;;;;;;;;;;1995441;29;20038;-85
2022/08/02 03:11:31;;;;;;;;;;;;;;;;;;1961672;30;20063;-85
2022/08/02 03:17:29;;;;;;;;;;;;;;;;;;;;;
2022/08/02 03:34:01;;;;;;;4.20;2.50;;;;;;;;;;2579151;23;20024;-96
2022/08/02 03:35:05;;;;;;;3.33;2.50;;;;;;;;;;2578910;23;20071;-96
2022/08/02 03:36:12;;;;;;;3.67;2.30;;;;;;;;;;2557388;23;20005;-96
2022/08/02 03:37:15;;;;;;;3.60;2.10;;;;;;;;;;2549508;23;20010;-96
2022/08/02 03:38:18;;;;;;;4.82;2.58;;;;;;;;;;2556998;23;20020;-96
2022/08/02 03:39:19;;;;;;;3.95;2.65;;;;;;;;;;2543821;23;20005;-96
2022/08/02 03:40:20;;;;;;;5.13;2.28;;;;;;;;;;2549901;23;20009;-96
2022/08/02 03:41:24;;;;;;;3.78;2.63;;;;;;;;;;2562102;23;19992;-96
2022/08/02 03:42:51;;;;;;;6.03;2.40;;;;;;;;;;2566268;23;19978;-96
2022/08/02 03:44:17;;;;;;;4.80;2.28;;;;;;;;;;2578937;23;20001;-96
2022/08/02 03:45:18;;;;;;;2.70;2.10;;;;;;;;;;2568256;23;20008;-96
2022/08/02 03:46:24;;;;;;;3.17;2.20;;;;;;;;;;2573382;23;20008;-96
2022/08/02 03:47:31;;;;;;;2.58;1.77;;;;;;;;;;2572858;23;19976;-96
2022/08/02 04:01:17;;;;;;;2.90;1.90;;;;;;;;;;2561235;22;20092;-95
2022/08/02 04:02:25;;;;;;;4.35;2.33;;;;;;;;;;2552045;23;20005;-96
2022/08/02 04:03:28;;;;;;;6.40;2.28;;;;;;;;;;2529025;23;20459;-96
2022/08/02 04:04:29;;;;;;;2.80;2.50;;;;;;;;;;2541752;23;20002;-96
2022/08/02 04:05:31;;;;;;;3.35;2.28;;;;;;;;;;2555016;23;20055;-96
2022/08/02 04:06:32;;;;;;;3.33;2.17;;;;;;;;;;2541047;23;20001;-96
2022/08/02 04:07:42;;;;;;;7.88;2.65;;;;;;;;;;2542336;23;20045;-96
2022/08/02 04:08:44;;;;;;;2.88;1.95;;;;;;;;;;2543723;23;20049;-96
2022/08/02 04:13:46;;;;;;;2.97;2.33;;;;;;;;;;2521174;23;19999;-96
2022/08/02 04:14:46;;;;;;;6.03;4.05;;;;;;;;;;2513365;23;20399;-96
2022/08/02 04:15:50;;;;;;;2.60;2.40;;;;;;;;;;2501801;23;20150;-96
2022/08/02 04:16:55;;;;;;;3.13;2.38;;;;;;;;;;2531891;23;20012;-96
2022/08/02 04:17:58;;;;;;;2.90;2.00;;;;;;;;;;2539241;23;20009;-96
2022/08/02 04:19:04;;;;;;;2.50;2.13;;;;;;;;;;2539669;23;20046;-96
2022/08/02 04:20:10;;;;;;;3.30;2.13;;;;;;;;;;2541096;23;20037;-96
2022/08/02 04:21:16;;;;;;;4.25;2.63;;;;;;;;;;2553223;23;20001;-96
2022/08/02 04:22:21;;;;;;;5.13;2.08;;;;;;;;;;2550946;23;20427;-96
2022/08/02 04:23:24;;;;;;;3.95;2.05;;;;;;;;;;2551906;23;19997;-95
2022/08/02 04:24:30;;;;;;;2.97;2.10;;;;;;;;;;2537499;23;19998;-96
2022/08/02 04:25:32;;;;;;;4.38;2.40;;;;;;;;;;2539181;23;20061;-96
2022/08/02 04:26:35;;;;;;;5.40;3.60;;;;;;;;;;2538361;23;20001;-96
2022/08/02 04:27:37;;;;;;;3.75;2.63;;;;;;;;;;2541741;23;19998;-96
2022/08/02 04:28:41;;;;;;;5.13;2.55;;;;;;;;;;2531816;23;20005;-96
2022/08/02 04:29:42;;;;;;;5.55;3.30;;;;;;;;;;2554547;23;20004;-96
2022/08/02 04:30:43;;;;;;;4.93;2.90;;;;;;;;;;2563425;23;19996;-96
2022/08/02 04:31:44;;;;;;;5.32;3.83;;;;;;;;;;2547117;23;20028;-96
2022/08/02 04:32:45;;;;;;;5.82;3.83;;;;;;;;;;2533911;23;20435;-96
2022/08/02 04:33:49;;;;;;;7.28;3.95;;;;;;;;;;2539260;23;19994;-96
2022/08/02 04:35:08;;;;;;;8.70;4.18;;;;;;;;;;2537436;23;20002;-96
2022/08/02 04:36:09;;;;;;;6.60;3.78;;;;;;;;;;2540418;23;20001;-96
2022/08/02 04:37:11;;;;;;;8.35;2.97;;;;;;;;;;2546016;23;20473;-96
2022/08/02 04:38:14;;;;;;;5.07;3.30;;;;;;;;;;2534247;23;20029;-96
2022/08/02 04:39:14;;;;;;;5.35;3.63;;;;;;;;;;2535970;23;20328;-96
2022/08/02 04:40:15;;;;;;;5.60;3.55;;;;;;;;;;2550148;23;20005;-96
2022/08/02 04:41:15;;;;;;;3.88;2.35;;;;;;;;;;2547077;23;20001;-96
2022/08/02 04:42:23;;;;;;;3.40;2.30;;;;;;;;;;2533893;23;20005;-96
2022/08/02 04:43:25;;;;;;;6.10;3.30;;;;;;;;;;2550033;23;20001;-96
2022/08/02 04:44:25;;;;;;;4.57;3.15;;;;;;;;;;2555313;23;20525;-96
2022/08/02 04:45:28;;;;;;;8.45;3.53;;;;;;;;;;2544587;23;19998;-96
2022/08/02 04:46:36;;;;;;;5.00;3.30;;;;;;;;;;2558991;23;19998;-96
2022/08/02 04:47:38;;;;;;;5.78;3.08;;;;;;;;;;2554761;23;19994;-96
2022/08/02 04:48:44;;;;;;;8.13;2.88;;;;;;;;;;2546185;23;19993;-96
2022/08/02 04:49:45;;;;;;;4.72;2.65;;;;;;;;;;2557823;23;20013;-96
2022/08/02 04:50:46;;;;;;;3.55;2.58;;;;;;;;;;2556212;23;20024;-96
2022/08/02 04:51:46;;;;;;;2.40;2.20;;;;;;;;;;2526898;23;20005;-95
2022/08/02 04:52:47;;;;;;;6.13;2.72;;;;;;;;;;2538976;23;20509;-96
2022/08/02 04:53:47;;;;;;;6.22;2.30;;;;;;;;;;2547766;23;20016;-96
2022/08/02 04:54:48;;;;;;;2.45;2.20;;;;;;;;;;2533963;23;19997;-95
2022/08/02 04:55:49;;;;;;;2.72;1.60;;;;;;;;;;2533758;23;19993;-95
2022/08/02 04:56:50;;;;;;;2.25;2.03;;;;;;;;;;2535761;23;20001;-96
2022/08/02 04:57:53;;;;;;;2.25;1.80;;;;;;;;;;2535126;23;19990;-96
2022/08/02 04:58:54;;;;;;;2.47;1.85;;;;;;;;;;2536675;23;20000;-95
2022/08/02 04:59:54;;;;;;;2.35;2.00;;;;;;;;;;2546417;23;20035;-95
2022/08/02 05:00:56;;;;;;;3.95;1.90;;;;;;;;;;2547531;23;20077;-96
2022/08/02 05:01:57;;;;;;;3.33;1.50;;;;;;;;;;2536678;23;20020;-96
2022/08/02 05:02:58;;;;;;;3.17;2.00;;;;;;;;;;2534626;23;20024;-95
2022/08/02 05:04:01;;;;;;;2.65;2.17;;;;;;;;;;2535703;23;20017;-95
2022/08/02 05:05:01;;;;;;;3.10;1.83;;;;;;;;;;2534158;23;20002;-95
2022/08/02 05:06:02;;;;;;;1.60;1.40;;;;;;;;;;2534202;23;20004;-95
2022/08/02 05:07:03;;;;;;;1.85;1.45;;;;;;;;;;2535343;23;20085;-95
2022/08/02 05:08:03;;;;;;;1.67;1.40;;;;;;;;;;2534238;23;20020;-96
2022/08/02 05:09:04;;;;;;;1.50;1.27;;;;;;;;;;2549034;23;20441;-96
2022/08/02 05:10:17;;;;;;;1.50;1.40;;;;;;;;;;2545308;23;20014;-94
2022/08/02 05:11:37;;;;;;;2.13;1.45;;;;;;;;;;2543994;23;20028;-95
2022/08/02 05:12:38;;;;;;;1.98;1.58;;;;;;;;;;2549302;23;19998;-96
2022/08/02 05:13:41;;;;;;;2.10;1.42;;;;;;;;;;2552589;23;19986;-96
2022/08/02 05:14:42;;;;;;;3.13;1.85;;;;;;;;;;2540818;23;20001;-96
2022/08/02 05:15:42;;;;;;;1.88;1.40;;;;;;;;;;2537950;23;19990;-96
2022/08/02 05:16:43;;;;;;;3.38;1.67;;;;;;;;;;2535779;23;19993;-94
2022/08/02 05:17:45;;;;;;;3.55;1.65;;;;;;;;;;2546792;23;19997;-96
2022/08/02 05:18:46;;;;;;;2.72;1.80;;;;;;;;;;2545959;23;19997;-96
2022/08/02 05:19:46;;;;;;;1.65;1.35;;;;;;;;;;2535300;23;20006;-95
2022/08/02 05:20:47;;;;;;;1.77;1.50;;;;;;;;;;2534185;23;20486;-96
2022/08/02 05:27:49;;;;;;;2.40;1.30;;;;;;;;;;2567701;23;19993;-96
2022/08/02 05:28:50;;;;;;;1.40;1.23;;;;;;;;;;2558324;23;20004;-96
2022/08/02 05:29:51;;;;;;;2.10;1.35;;;;;;;;;;2545764;23;19997;-96
2022/08/02 05:30:51;;;;;;;2.15;1.42;;;;;;;;;;2543208;23;20085;-96
2022/08/02 05:31:53;;;;;;;2.05;1.40;;;;;;;;;;2554491;23;20002;-96
2022/08/02 05:32:53;;;;;;;1.20;1.10;;;;;;;;;;2553989;23;19998;-96
2022/08/02 05:33:54;;;;;;;2.60;1.40;;;;;;;;;;2528030;23;20037;-96
2022/08/02 05:34:55;;;;;;;4.93;1.30;;;;;;;;;;2538079;23;20005;-95
2022/08/02 05:35:57;;;;;;;1.85;1.30;;;;;;;;;;2513829;23;19999;-96
2022/08/02 05:36:59;;;;;;;4.88;2.08;;;;;;;;;;2524400;23;20002;-96
2022/08/02 05:38:00;;;;;;;3.10;1.20;;;;;;;;;;2548005;23;20028;-96
2022/08/02 05:39:22;;;;;;;5.63;1.50;;;;;;;;;;2538736;23;20029;-96
2022/08/02 05:40:24;;;;;;;1.40;1.20;;;;;;;;;;2546516;23;20028;-96
2022/08/02 05:41:30;;;;;;;2.22;1.30;;;;;;;;;;2530019;23;20006;-96
2022/08/02 05:43:41;;;;;;;1.42;1.10;;;;;;;;;;2522604;23;20019;-95
2022/08/02 05:44:42;;;;;;;2.70;1.00;;;;;;;;;;2541563;23;20021;-96
2022/08/02 05:48:21;;;;;;;1.35;1.02;;;;;;;;;;2557102;23;19990;-96
2022/08/02 05:49:22;;;;;;;1.42;1.33;;;;;;;;;;2555216;23;20004;-96
2022/08/02 05:54:31;;;;;;;1.38;1.10;;;;;;;;;;2556359;23;19989;-96
2022/08/02 05:55:39;;;;;;;0.80;0.80;;;;;;;;;;2536633;23;20008;-95
2022/08/02 05:57:27;;;;;;;1.00;0.90;;;;;;;;;;2524889;23;20017;-96
2022/08/02 06:33:20;;;;;;;0.90;0.70;;;;;;;;;;2563338;22;20021;-96
2022/08/02 06:44:03;;;;;;;0.95;0.70;;;;;;;;;;2565329;23;20021;-96
2022/08/02 06:52:09;;;;;;;0.65;0.65;;;;;;;;;;2573189;22;20438;-96
2022/08/02 06:53:10;;;;;;;0.60;0.60;;;;;;;;;;2561531;23;20000;-96
2022/08/02 06:54:11;;;;;;;1.17;0.80;;;;;;;;;;2547603;23;20454;-95
2022/08/02 06:55:12;;;;;;;1.00;0.90;;;;;;;;;;2546828;23;20482;-96
2022/08/02 06:56:12;;;;;;;1.88;1.05;;;;;;;;;;2545726;23;20031;-95
2022/08/02 06:57:13;;;;;;;1.73;0.93;;;;;;;;;;2536440;23;20447;-96
2022/08/02 06:58:14;;;;;;;0.82;0.80;;;;;;;;;;2537944;23;20041;-94
2022/08/02 06:59:14;;;;;;;0.60;0.60;;;;;;;;;;2547220;23;19997;-94
2022/08/02 07:00:16;;;;;;;1.05;0.77;;;;;;;;;;2548522;23;19994;-96
2022/08/02 07:01:18;;;;;;;2.05;0.88;;;;;;;;;;2558523;23;20346;-96
2022/08/02 07:02:18;;;;;;;2.72;0.70;;;;;;;;;;2541797;23;20101;-94
2022/08/02 07:03:19;;;;;;;1.67;0.90;;;;;;;;;;2545674;23;20439;-94
2022/08/02 07:04:19;;;;;;;0.65;0.65;;;;;;;;;;2534172;23;20008;-94
2022/08/02 07:05:20;;;;;;;1.55;0.70;;;;;;;;;;2533521;23;20049;-95
2022/08/02 07:06:21;;;;;;;0.85;0.82;;;;;;;;;;2533673;23;20076;-96
2022/08/02 07:07:22;;;;;;;1.52;0.70;;;;;;;;;;2547439;23;20008;-96
2022/08/02 07:08:23;;;;;;;0.57;0.50;;;;;;;;;;2545924;23;20004;-96
2022/08/02 07:09:23;;;;;;;1.13;0.75;;;;;;;;;;2538623;23;20002;-96
2022/08/02 07:10:24;;;;;;;0.80;0.80;;;;;;;;;;2544297;23;20036;-95
2022/08/02 07:11:24;;;;;;;0.60;0.60;;;;;;;;;;2545016;23;20022;-96
2022/08/02 07:12:26;;;;;;;1.58;0.80;;;;;;;;;;2557781;23;19996;-95
2022/08/02 07:13:27;;;;;;;1.17;0.93;;;;;;;;;;2556839;23;20078;-94
2022/08/02 07:14:28;;;;;;;0.77;0.77;;;;;;;;;;2537267;23;20008;-94
2022/08/02 07:15:28;;;;;;;0.98;0.93;;;;;;;;;;2548864;23;20005;-96
2022/08/02 07:16:29;;;;;;;0.93;0.80;;;;;;;;;;2538207;23;19998;-96
2022/08/02 07:17:30;;;;;;;0.65;0.60;;;;;;;;;;2555257;23;20062;-96
2022/08/02 07:18:34;;;;;;;2.03;0.90;;;;;;;;;;2565037;23;20462;-95
2022/08/02 07:22:05;;;;;;;0.93;0.65;;;;;;;;;;2551773;23;19998;-94
2022/08/02 07:23:05;;;;;;;0.90;0.90;;;;;;;;;;2569244;23;19981;-94
2022/08/02 07:24:11;;;;;;;1.42;0.85;;;;;;;;;;2557285;23;19993;-94
2022/08/02 07:25:12;;;;;;;0.80;0.57;;;;;;;;;;2542230;23;20002;-94
2022/08/02 07:26:12;;;;;;;0.95;0.80;;;;;;;;;;2543169;23;20013;-95
2022/08/02 07:27:13;;;;;;;0.50;0.50;;;;;;;;;;2545519;23;19993;-95
2022/08/02 07:28:16;;;;;;;1.05;0.70;;;;;;;;;;2558031;23;20026;-94
2022/08/02 07:29:17;;;;;;;0.75;0.75;;;;;;;;;;2546217;23;20010;-94
2022/08/02 07:30:17;;;;;;;1.20;0.70;;;;;;;;;;2557409;23;19997;-95
2022/08/02 07:31:18;;;;;;;0.90;0.73;;;;;;;;;;2570264;23;20020;-96
2022/08/02 07:32:21;;;;;;;1.35;0.60;;;;;;;;;;2569992;23;19993;-96
2022/08/02 07:33:21;;;;;;;1.08;0.70;;;;;;;;;;2557445;23;20009;-96
2022/08/02 07:34:22;;;;;;;0.60;0.60;;;;;;;;;;2557500;23;19986;-95
2022/08/02 07:35:22;;;;;;;2.58;0.85;;;;;;;;;;2544797;23;20426;-95
2022/08/02 07:36:23;;;;;;;1.38;0.73;;;;;;;;;;2552859;23;20434;-96
2022/08/02 07:38:35;;;;;;;0.88;0.70;;;;;;;;;;2566836;23;20013;-96
2022/08/02 07:39:35;;;;;;;0.93;0.60;;;;;;;;;;2566295;23;19997;-96
2022/08/02 07:40:36;;;;;;;1.02;0.52;;;;;;;;;;2551219;23;19986;-96
2022/08/02 07:41:37;;;;;;;1.70;0.80;;;;;;;;;;2566921;23;20013;-96
2022/08/02 07:42:37;;;;;;;2.60;0.70;;;;;;;;;;2549610;23;20485;-95
2022/08/02 07:43:38;;;;;;;0.75;0.50;;;;;;;;;;2551824;23;19997;-96
2022/08/02 07:44:38;;;;;;;0.50;0.50;;;;;;;;;;2551168;23;20070;-96
2022/08/02 07:45:39;;;;;;;1.00;0.70;;;;;;;;;;2565021;23;20667;-96
2022/08/02 07:46:41;;;;;;;1.55;0.70;;;;;;;;;;2561523;23;20004;-96
2022/08/02 07:47:42;;;;;;;0.60;0.50;;;;;;;;;;2559414;23;20035;-96
2022/08/02 07:48:46;;;;;;;1.08;0.60;;;;;;;;;;2547101;23;19989;-96
2022/08/02 07:49:46;;;;;;;1.67;0.82;;;;;;;;;;2547837;23;20004;-96
2022/08/02 07:50:49;;;;;;;0.70;0.70;;;;;;;;;;2561627;23;20045;-95
2022/08/02 07:51:49;;;;;;;0.95;0.70;;;;;;;;;;2558364;23;20105;-96
2022/08/02 07:53:04;;;;;;;0.60;0.60;;;;;;;;;;2557774;23;20016;-96
2022/08/02 08:01:05;;;;;;;2.42;0.43;;;;;;;;;;2571490;23;20017;-96
2022/08/02 08:02:05;;;;;;;1.85;0.50;;;;;;;;;;2561417;23;19998;-96
2022/08/02 08:03:07;;;;;;;1.35;0.45;;;;;;;;;;2548835;23;20017;-96
2022/08/02 08:04:09;;;;;;;0.43;0.40;;;;;;;;;;2549018;23;19993;-95
2022/08/02 08:05:10;;;;;;;0.45;0.40;;;;;;;;;;2549486;23;20103;-96
2022/08/02 08:08:38;;;;;;;4.40;0.60;;;;;;;;;;2564232;22;20396;-96
2022/08/02 08:09:41;;;;;;;0.55;0.40;;;;;;;;;;2564096;23;20093;-96
2022/08/02 08:10:41;;;;;;;0.73;0.40;;;;;;;;;;2548411;23;19997;-95
2022/08/02 08:11:42;;;;;;;1.23;0.40;;;;;;;;;;2549637;23;20024;-95
2022/08/02 08:13:58;;;;;;;1.48;0.50;;;;;;;;;;2556298;22;20017;-96
2022/08/02 08:14:59;;;;;;;1.25;0.40;;;;;;;;;;2561297;23;20005;-96
2022/08/02 08:21:22;;;;;;;0.93;0.80;;;;;;;;;;2564340;23;20126;-95
2022/08/02 08:22:25;;;;;;;3.72;0.80;;;;;;;;;;2547496;23;20021;-96
2022/08/02 08:41:10;;;;;;;;;;;;;;;;;;2558713;22;20028;-93
2022/08/02 08:42:10;;;;;;;2.88;0.90;;;;;;;;;;2589202;23;20264;-93
2022/08/02 08:43:12;;;;;;;0.98;0.50;;;;;;;;;;2570258;23;20020;-95
2022/08/02 08:44:19;;;;;;;0.40;0.40;;;;;;;;;;2571895;23;19999;-95
2022/08/02 08:45:19;;;;;;;0.40;0.30;;;;;;;;;;2559495;23;19997;-95
2022/08/02 08:46:26;;;;;;;0.80;0.57;;;;;;;;;;2558821;23;20008;-96
2022/08/02 08:47:34;;;;;;;0.93;0.73;;;;;;;;;;2561446;23;20051;-95
2022/08/02 10:14:36;;;;;;;1.10;1.00;;;;;;;;;;2558880;22;1355717;-81
2022/08/02 11:55:49;;;;;;;3.55;1.65;;;;;;;;;;2601768;22;20008;-83
2022/08/02 12:35:56;;;;;;;1.90;1.80;;;;;;;;;;2562243;23;20013;-83
2022/08/02 13:26:45;;;;;;;3.25;2.20;;;;;;;;;;2561377;23;20072;-85
2022/08/02 13:28:41;;;;;;;3.05;2.65;;;;;;;;;;2563457;23;20012;-82
2022/08/02 13:36:17;;;;;;;;;;;;;;;;;;;;;
2022/08/02 13:38:48;;;;;;;;;;;;;;;;;;;;;
2022/08/02 13:41:54;;;;;;;4.20;2.42;;;;;;;;;;2490579;23;20016;-81
2022/08/02 13:47:41;;;;;;;;;;;;;;;;;;;;;
2022/08/02 13:51:13;;;;;;;;;;;;;;;;;;;;;
2022/08/02 14:05:09;;;;;;;;;;;;;;;;;;;;;
2022/08/02 17:24:16;;;;;;;;;;;;;;;;;;;;;
2022/08/02 17:31:38;;;;;;;2.53;1.15;;;;;;;;;;2554615;23;20027;-82
2022/08/02 17:35:25;;;;;;;2.92;1.45;;;;;;;;;;2506577;23;20007;-83
2022/08/02 17:37:59;;;;;;;;;;;;;;;;;;2514729;23;20081;-83
2022/08/02 17:39:46;;;;;;;1.98;1.30;;;;;;;;;;2597543;22;19914;-84
2022/08/02 17:42:56;;;;;;;2.30;1.60;;;;;;;;;;2549536;22;20005;-83
2022/08/02 17:43:56;;;;;;;1.60;1.30;;;;;;;;;;2597778;22;20010;-83
2022/08/02 17:45:06;;;;;;;1.83;1.20;;;;;;;;;;2602095;22;19987;-83
2022/08/02 17:46:42;;;;;;;2.13;1.67;;;;;;;;;;2602616;22;20007;-82
2022/08/02 17:47:51;;;;;;;2.83;1.85;;;;;;;;;;2610208;22;20006;-83
2022/08/02 17:51:06;;;;;;;2.03;1.70;;;;;;;;;;2559007;23;20052;-83
2022/08/02 17:52:30;;;;;;;;;;;;;;;;;;2598889;22;19995;-82
2022/08/02 18:16:22;;;;;;;2.20;2.00;;;;;;;;;;2525389;23;20006;-85
2022/08/02 18:24:56;;;;;;;3.55;1.70;;;;;;;;;;2425805;24;20013;-81
2022/08/02 18:26:40;;;;;;;1.70;1.60;;;;;;;;;;2490737;23;20039;-84
2022/08/02 18:31:30;;;;;;;1.63;1.45;;;;;;;;;;2561512;23;20012;-83
2022/08/02 18:43:26;;;;;;;2.60;1.25;;;;;;;;;;2440889;24;20009;-81
2022/08/02 18:47:35;;;;;;;;;;;;;;;;;;;;;
2022/08/02 18:49:07;;;;;;;1.23;1.10;;;;;;;;;;2423534;24;20002;-82
2022/08/02 18:51:09;;;;;;;;;;;;;;;;;;;;;
2022/08/02 18:56:51;;;;;;;;;;;;;;;;;;;;;
2022/08/02 19:01:05;;;;;;;;;;;;;;;;;;;;;
2022/08/02 19:25:38;;;;;;;;;;;;;;;;;;;;;
2022/08/02 19:27:09;;;;;;;2.10;1.55;;;;;;;;;;2623305;22;20245;-85
2022/08/02 19:29:23;;;;;;;;;;;;;;;;;;;;;
2022/08/02 19:40:08;;;;;;;;;;;;;;;;;;;;;
2022/08/02 19:41:40;;;;;;;1.95;1.30;;;;;;;;;;2418025;24;20006;-86
2022/08/02 19:43:34;;;;;;;6.72;1.67;;;;;;;;;;2438428;24;20146;-88
2022/08/02 20:08:27;;;;;;;2.00;1.40;;;;;;;;;;2614894;22;20350;-85
2022/08/02 20:10:25;;;;;;;2.17;1.40;;;;;;;;;;2603076;22;20246;-85
2022/08/02 20:14:44;;;;;;;;;;;;;;;;;;;;;
2022/08/02 20:18:25;;;;;;;2.67;1.33;;;;;;;;;;2515226;23;20010;-86
2022/08/02 20:28:54;;;;;;;2.05;1.52;;;;;;;;;;2614932;22;20027;-87
2022/08/02 20:29:58;;;;;;;4.72;1.90;;;;;;;;;;2620337;22;19995;-86
2022/08/02 20:33:04;;;;;;;;;;;;;;;;;;;;;
2022/08/02 20:34:25;;;;;;;;;;;;;;;;;;;;;
2022/08/02 20:35:37;;;;;;;;;;;;;;;;;;2620119;22;20015;-84
2022/08/02 20:37:00;;;;;;;2.28;1.30;;;;;;;;;;2620483;22;19962;-86
2022/08/02 20:38:37;;;;;;;1.23;1.02;;;;;;;;;;2563870;23;20005;-85
2022/08/02 20:40:20;;;;;;;1.85;1.52;;;;;;;;;;2614485;22;19987;-86
2022/08/02 21:09:31;;;;;;;1.77;1.33;;;;;;;;;;2421636;24;20014;-84
2022/08/02 21:10:32;;;;;;;1.92;1.45;;;;;;;;;;2422222;24;20009;-82
2022/08/02 21:11:33;;;;;;;4.90;2.22;;;;;;;;;;2432464;23;20085;-81
2022/08/02 21:12:34;;;;;;;1.95;1.25;;;;;;;;;;2485274;23;20026;-82
2022/08/02 21:13:43;;;;;;;5.72;1.67;;;;;;;;;;2486238;23;20449;-82
2022/08/02 21:15:14;;;;;;;1.90;1.50;;;;;;;;;;2518499;23;20002;-82
2022/08/02 21:17:13;;;;;;;;;;;;;;;;;;;;;
2022/08/02 21:26:20;;;;;;;3.55;1.50;;;;;;;;;;2472910;23;20015;-81
2022/08/02 21:32:50;;;;;;;;;;;;;;;;;;;;;
2022/08/02 21:34:21;;;;;;;;;;;;;;;;;;;;;
2022/08/02 21:36:32;;;;;;;;;;;;;;;;;;;;;
2022/08/02 21:56:20;;;;;;;4.00;1.45;;;;;;;;;;2067416;28;20033;-84
2022/08/02 21:58:22;;;;;;;;;;;;;;;;;;;;;
2022/08/02 22:04:19;;;;;;;;;;;;;;;;;;;;;
2022/08/02 22:06:17;;;;;;;1.73;1.40;;;;;;;;;;2075901;28;20025;-86
2022/08/02 22:08:31;;;;;;;;;;;;;;;;;;;;;
2022/08/02 22:13:20;;;;;;;3.58;1.75;;;;;;;;;;2097910;28;20128;-85
2022/08/02 22:18:06;;;;;;;2.80;1.38;;;;;;;;;;2035974;29;20036;-84
2022/08/02 22:19:09;;;;;;;2.67;1.30;;;;;;;;;;2065822;28;20042;-85
2022/08/02 22:20:10;;;;;;;1.52;1.30;;;;;;;;;;2091021;28;20102;-85
2022/08/02 22:21:13;;;;;;;2.05;1.55;;;;;;;;;;2097478;28;20195;-85
2022/08/02 22:22:14;;;;;;;1.48;1.38;;;;;;;;;;2090205;28;20368;-85
2022/08/02 22:23:16;;;;;;;3.40;2.28;;;;;;;;;;2099898;28;20028;-85
2022/08/02 22:24:20;;;;;;;2.20;1.70;;;;;;;;;;2124516;28;20389;-84
2022/08/02 22:25:21;;;;;;;2.10;1.70;;;;;;;;;;2123930;27;20027;-84
2022/08/02 22:26:21;;;;;;;2.33;1.67;;;;;;;;;;2124500;28;20456;-86
2022/08/02 22:27:23;;;;;;;2.10;1.38;;;;;;;;;;2115566;28;20024;-86
2022/08/02 22:28:23;;;;;;;1.70;1.50;;;;;;;;;;2115333;28;20026;-85
2022/08/02 22:29:24;;;;;;;2.80;1.52;;;;;;;;;;2124659;28;20023;-83
2022/08/02 22:30:24;;;;;;;2.38;1.50;;;;;;;;;;2124947;28;20236;-84
2022/08/02 22:31:24;;;;;;;1.83;1.45;;;;;;;;;;2115520;28;20027;-84
2022/08/02 22:35:03;;;;;;;3.33;1.70;;;;;;;;;;2125415;28;20031;-84
2022/08/02 22:36:05;;;;;;;2.33;1.67;;;;;;;;;;2125279;28;20050;-85
2022/08/02 22:37:06;;;;;;;2.05;1.40;;;;;;;;;;2115870;28;20035;-85